sensor_id;sensor_type;location;lat;lon;timestamp;pressure;altitude;pressure_sealevel;temperature;humidity
7662;BME280;30314;48.184;11.510;2023-05-02T00:00:39;95991.97;;;9.24;100.00
7662;BME280;30314;48.184;11.510;2023-05-02T00:03:05;95986.19;;;9.22;100.00
7662;BME280;30314;48.184;11.510;2023-05-02T00:05:34;95982.44;;;9.28;100.00
7662;BME280;30314;48.184;11.510;2023-05-02T00:08:00;95992.72;;;9.25;100.00
7662;BME280;30314;48.184;11.510;2023-05-02T00:10:27;95988.53;;;9.24;100.00
7662;BME280;30314;48.184;11.510;2023-05-02T00:12:53;95979.81;;;9.28;100.00
7662;BME280;30314;48.184;11.510;2023-05-02T00:15:20;95983.00;;;9.25;100.00
7662;BME280;30314;48.184;11.510;2023-05-02T00:17:46;95980.91;;;9.22;100.00
7662;BME280;30314;48.184;11.510;2023-05-02T00:20:13;95985.69;;;9.20;100.00
7662;BME280;30314;48.184;11.510;2023-05-02T00:22:40;95983.81;;;9.15;100.00
7662;BME280;30314;48.184;11.510;2023-05-02T00:25:06;95985.16;;;9.13;100.00
7662;BME280;30314;48.184;11.510;2023-05-02T00:27:33;95979.13;;;9.07;100.00
7662;BME280;30314;48.184;11.510;2023-05-02T00:30:00;95987.31;;;9.00;100.00
7662;BME280;30314;48.184;11.510;2023-05-02T00:32:27;95982.31;;;8.99;100.00
7662;BME280;30314;48.184;11.510;2023-05-02T00:34:54;95986.56;;;9.00;100.00
7662;BME280;30314;48.184;11.510;2023-05-02T00:37:25;95984.94;;;8.99;100.00
7662;BME280;30314;48.184;11.510;2023-05-02T00:39:51;95978.41;;;8.91;100.00
7662;BME280;30314;48.184;11.510;2023-05-02T00:42:18;95974.22;;;8.85;100.00
7662;BME280;30314;48.184;11.510;2023-05-02T00:44:44;95981.88;;;8.86;100.00
7662;BME280;30314;48.184;11.510;2023-05-02T00:47:13;95974.53;;;8.78;100.00
7662;BME280;30314;48.184;11.510;2023-05-02T00:49:40;95978.22;;;8.72;100.00
7662;BME280;30314;48.184;11.510;2023-05-02T00:52:07;95980.56;;;8.79;100.00
7662;BME280;30314;48.184;11.510;2023-05-02T00:54:36;95981.66;;;8.72;100.00
7662;BME280;30314;48.184;11.510;2023-05-02T00:57:04;95984.03;;;8.74;100.00
7662;BME280;30314;48.184;11.510;2023-05-02T00:59:33;95966.19;;;8.55;100.00
7662;BME280;30314;48.184;11.510;2023-05-02T01:02:15;95984.31;;;8.67;100.00
7662;BME280;30314;48.184;11.510;2023-05-02T01:04:55;95983.78;;;8.65;100.00
7662;BME280;30314;48.184;11.510;2023-05-02T01:07:47;95987.50;;;8.59;100.00
7662;BME280;30314;48.184;11.510;2023-05-02T01:10:37;95991.16;;;8.63;100.00
7662;BME280;30314;48.184;11.510;2023-05-02T01:13:13;95985.41;;;8.56;100.00
7662;BME280;30314;48.184;11.510;2023-05-02T01:15:43;95994.09;;;8.62;100.00
7662;BME280;30314;48.184;11.510;2023-05-02T01:18:13;95986.47;;;8.50;100.00
7662;BME280;30314;48.184;11.510;2023-05-02T01:20:42;95990.41;;;8.57;100.00
7662;BME280;30314;48.184;11.510;2023-05-02T01:23:16;95983.06;;;8.49;100.00
7662;BME280;30314;48.184;11.510;2023-05-02T01:28:41;95990.47;;;8.37;100.00
7662;BME280;30314;48.184;11.510;2023-05-02T01:31:09;95992.84;;;8.33;100.00
7662;BME280;30314;48.184;11.510;2023-05-02T01:33:38;95994.69;;;8.32;100.00
7662;BME280;30314;48.184;11.510;2023-05-02T01:36:06;95994.16;;;8.36;100.00
7662;BME280;30314;48.184;11.510;2023-05-02T01:38:34;95991.53;;;8.30;100.00
7662;BME280;30314;48.184;11.510;2023-05-02T01:41:02;95990.47;;;8.31;100.00
7662;BME280;30314;48.184;11.510;2023-05-02T01:43:32;95997.88;;;8.24;100.00
7662;BME280;30314;48.184;11.510;2023-05-02T01:46:01;95993.38;;;8.25;100.00
7662;BME280;30314;48.184;11.510;2023-05-02T01:48:30;95993.66;;;8.18;100.00
7662;BME280;30314;48.184;11.510;2023-05-02T01:50:57;95998.44;;;8.11;100.00
7662;BME280;30314;48.184;11.510;2023-05-02T01:53:25;95998.16;;;8.07;100.00
7662;BME280;30314;48.184;11.510;2023-05-02T01:55:54;95998.16;;;8.17;100.00
7662;BME280;30314;48.184;11.510;2023-05-02T01:58:25;95997.63;;;8.10;100.00
7662;BME280;30314;48.184;11.510;2023-05-02T02:00:55;95995.00;;;8.10;100.00
7662;BME280;30314;48.184;11.510;2023-05-02T02:03:26;96000.28;;;8.05;100.00
7662;BME280;30314;48.184;11.510;2023-05-02T02:05:54;95988.72;;;8.01;100.00
7662;BME280;30314;48.184;11.510;2023-05-02T02:08:22;96007.13;;;8.01;100.00
7662;BME280;30314;48.184;11.510;2023-05-02T02:10:58;96009.75;;;8.01;100.00
7662;BME280;30314;48.184;11.510;2023-05-02T02:13:30;96007.09;;;8.06;100.00
7662;BME280;30314;48.184;11.510;2023-05-02T02:16:02;96009.22;;;8.04;100.00
7662;BME280;30314;48.184;11.510;2023-05-02T02:18:35;96012.63;;;8.04;100.00
7662;BME280;30314;48.184;11.510;2023-05-02T02:21:05;96020.53;;;7.99;100.00
7662;BME280;30314;48.184;11.510;2023-05-02T02:23:33;96021.06;;;8.01;100.00
7662;BME280;30314;48.184;11.510;2023-05-02T02:26:03;96017.91;;;7.94;100.00
7662;BME280;30314;48.184;11.510;2023-05-02T02:28:30;96018.69;;;7.95;100.00
7662;BME280;30314;48.184;11.510;2023-05-02T02:30:57;96025.53;;;7.91;100.00
7662;BME280;30314;48.184;11.510;2023-05-02T02:33:28;96019.75;;;7.88;100.00
7662;BME280;30314;48.184;11.510;2023-05-02T02:36:05;96017.13;;;7.83;100.00
7662;BME280;30314;48.184;11.510;2023-05-02T02:41:27;96027.91;;;7.87;100.00
7662;BME280;30314;48.184;11.510;2023-05-02T02:44:11;96025.28;;;7.87;100.00
7662;BME280;30314;48.184;11.510;2023-05-02T02:47:40;96035.25;;;7.90;100.00
7662;BME280;30314;48.184;11.510;2023-05-02T02:50:05;96030.78;;;7.96;100.00
7662;BME280;30314;48.184;11.510;2023-05-02T02:52:49;96034.47;;;7.89;100.00
7662;BME280;30314;48.184;11.510;2023-05-02T02:58:03;96035.53;;;7.94;100.00
7662;BME280;30314;48.184;11.510;2023-05-02T03:00:33;96033.44;;;8.01;100.00
7662;BME280;30314;48.184;11.510;2023-05-02T03:03:00;96036.84;;;7.96;100.00
7662;BME280;30314;48.184;11.510;2023-05-02T03:05:28;96038.69;;;7.96;100.00
7662;BME280;30314;48.184;11.510;2023-05-02T03:07:55;96046.03;;;7.94;100.00
7662;BME280;30314;48.184;11.510;2023-05-02T03:10:24;96039.22;;;7.93;100.00
7662;BME280;30314;48.184;11.510;2023-05-02T03:12:51;96046.56;;;7.91;100.00
7662;BME280;30314;48.184;11.510;2023-05-02T03:18:08;96053.16;;;7.88;100.00
7662;BME280;30314;48.184;11.510;2023-05-02T03:20:35;96049.22;;;7.91;100.00
7662;BME280;30314;48.184;11.510;2023-05-02T03:23:02;96061.28;;;7.86;100.00
7662;BME280;30314;48.184;11.510;2023-05-02T03:25:29;96054.72;;;7.79;100.00
7662;BME280;30314;48.184;11.510;2023-05-02T03:27:56;96050.78;;;7.81;100.00
7662;BME280;30314;48.184;11.510;2023-05-02T03:30:23;96054.47;;;7.80;100.00
7662;BME280;30314;48.184;11.510;2023-05-02T03:32:50;96056.03;;;7.81;100.00
7662;BME280;30314;48.184;11.510;2023-05-02T03:35:16;96057.59;;;7.72;100.00
7662;BME280;30314;48.184;11.510;2023-05-02T03:37:45;96058.13;;;7.64;100.00
7662;BME280;30314;48.184;11.510;2023-05-02T03:40:12;96062.06;;;7.61;100.00
7662;BME280;30314;48.184;11.510;2023-05-02T03:42:38;96054.72;;;7.58;100.00
7662;BME280;30314;48.184;11.510;2023-05-02T03:45:17;96061.53;;;7.54;100.00
7662;BME280;30314;48.184;11.510;2023-05-02T03:47:44;96071.00;;;7.55;100.00
7662;BME280;30314;48.184;11.510;2023-05-02T03:50:11;96075.19;;;7.51;100.00
7662;BME280;30314;48.184;11.510;2023-05-02T03:52:38;96070.72;;;7.51;100.00
7662;BME280;30314;48.184;11.510;2023-05-02T03:55:06;96072.03;;;7.43;100.00
7662;BME280;30314;48.184;11.510;2023-05-02T03:57:33;96077.00;;;7.40;100.00
7662;BME280;30314;48.184;11.510;2023-05-02T04:00:00;96074.38;;;7.40;100.00
7662;BME280;30314;48.184;11.510;2023-05-02T04:02:36;96082.50;;;7.38;100.00
7662;BME280;30314;48.184;11.510;2023-05-02T04:05:07;96080.41;;;7.35;100.00
7662;BME280;30314;48.184;11.510;2023-05-02T04:07:35;96084.88;;;7.35;100.00
7662;BME280;30314;48.184;11.510;2023-05-02T04:10:04;96092.22;;;7.32;100.00
7662;BME280;30314;48.184;11.510;2023-05-02T04:12:37;96088.00;;;7.31;100.00
7662;BME280;30314;48.184;11.510;2023-05-02T04:15:05;96094.31;;;7.30;100.00
7662;BME280;30314;48.184;11.510;2023-05-02T04:17:32;96097.47;;;7.32;100.00
7662;BME280;30314;48.184;11.510;2023-05-02T04:19:59;96090.66;;;7.37;100.00
7662;BME280;30314;48.184;11.510;2023-05-02T04:22:31;96102.00;;;7.47;100.00
7662;BME280;30314;48.184;11.510;2023-05-02T04:25:02;96100.66;;;7.45;100.00
7662;BME280;30314;48.184;11.510;2023-05-02T04:27:29;96098.59;;;7.47;100.00
7662;BME280;30314;48.184;11.510;2023-05-02T04:29:57;96093.34;;;7.52;100.00
7662;BME280;30314;48.184;11.510;2023-05-02T04:32:25;96105.69;;;7.57;100.00
7662;BME280;30314;48.184;11.510;2023-05-02T04:34:54;96112.25;;;7.54;100.00
7662;BME280;30314;48.184;11.510;2023-05-02T04:37:22;96106.47;;;7.57;100.00
7662;BME280;30314;48.184;11.510;2023-05-02T04:39:48;96114.63;;;7.66;100.00
7662;BME280;30314;48.184;11.510;2023-05-02T04:42:24;96117.00;;;7.68;100.00
7662;BME280;30314;48.184;11.510;2023-05-02T04:45:11;96118.06;;;7.67;100.00
7662;BME280;30314;48.184;11.510;2023-05-02T04:47:37;96127.56;;;7.78;100.00
7662;BME280;30314;48.184;11.510;2023-05-02T04:50:06;96131.50;;;7.81;100.00
7662;BME280;30314;48.184;11.510;2023-05-02T04:52:34;96128.31;;;7.79;100.00
7662;BME280;30314;48.184;11.510;2023-05-02T04:55:01;96135.97;;;7.80;100.00
7662;BME280;30314;48.184;11.510;2023-05-02T04:57:27;96142.56;;;7.88;100.00
7662;BME280;30314;48.184;11.510;2023-05-02T04:59:57;96144.41;;;7.87;100.00
7662;BME280;30314;48.184;11.510;2023-05-02T05:02:25;96151.25;;;7.88;100.00
7662;BME280;30314;48.184;11.510;2023-05-02T05:04:53;96150.44;;;7.88;100.00
7662;BME280;30314;48.184;11.510;2023-05-02T05:07:20;96155.97;;;7.97;100.00
7662;BME280;30314;48.184;11.510;2023-05-02T05:09:49;96154.91;;;7.98;100.00
7662;BME280;30314;48.184;11.510;2023-05-02T05:12:19;96151.50;;;8.02;100.00
7662;BME280;30314;48.184;11.510;2023-05-02T05:14:46;96159.16;;;8.09;100.00
7662;BME280;30314;48.184;11.510;2023-05-02T05:17:13;96165.22;;;8.20;100.00
7662;BME280;30314;48.184;11.510;2023-05-02T05:19:40;96162.34;;;8.27;100.00
7662;BME280;30314;48.184;11.510;2023-05-02T05:22:07;96163.38;;;8.36;100.00
7662;BME280;30314;48.184;11.510;2023-05-02T05:24:36;96160.22;;;8.29;100.00
7662;BME280;30314;48.184;11.510;2023-05-02T05:27:04;96168.34;;;8.32;100.00
7662;BME280;30314;48.184;11.510;2023-05-02T05:29:32;96161.81;;;8.40;100.00
7662;BME280;30314;48.184;11.510;2023-05-02T05:31:58;96170.22;;;8.48;100.00
7662;BME280;30314;48.184;11.510;2023-05-02T05:34:26;96175.75;;;8.51;100.00
7662;BME280;30314;48.184;11.510;2023-05-02T05:36:56;96172.56;;;8.54;100.00
7662;BME280;30314;48.184;11.510;2023-05-02T05:39:23;96181.78;;;8.62;100.00
7662;BME280;30314;48.184;11.510;2023-05-02T05:41:52;96182.59;;;8.63;100.00
7662;BME280;30314;48.184;11.510;2023-05-02T05:44:20;96179.41;;;8.66;100.00
7662;BME280;30314;48.184;11.510;2023-05-02T05:46:48;96191.00;;;8.75;100.00
7662;BME280;30314;48.184;11.510;2023-05-02T05:49:15;96189.66;;;8.78;100.00
7662;BME280;30314;48.184;11.510;2023-05-02T05:51:42;96201.00;;;8.88;100.00
7662;BME280;30314;48.184;11.510;2023-05-02T05:54:09;96195.72;;;8.94;100.00
7662;BME280;30314;48.184;11.510;2023-05-02T05:56:37;96205.44;;;9.03;100.00
7662;BME280;30314;48.184;11.510;2023-05-02T05:59:16;96207.00;;;9.05;100.00
7662;BME280;30314;48.184;11.510;2023-05-02T06:01:42;96205.19;;;9.05;100.00
7662;BME280;30314;48.184;11.510;2023-05-02T06:04:10;96203.56;;;9.09;100.00
7662;BME280;30314;48.184;11.510;2023-05-02T06:06:40;96203.84;;;9.13;100.00
7662;BME280;30314;48.184;11.510;2023-05-02T06:09:07;96203.56;;;9.20;100.00
7662;BME280;30314;48.184;11.510;2023-05-02T06:11:36;96204.63;;;9.24;100.00
7662;BME280;30314;48.184;11.510;2023-05-02T06:14:03;96218.06;;;9.27;100.00
7662;BME280;30314;48.184;11.510;2023-05-02T06:16:30;96213.03;;;9.41;100.00
7662;BME280;30314;48.184;11.510;2023-05-02T06:18:56;96216.94;;;9.49;100.00
7662;BME280;30314;48.184;11.510;2023-05-02T06:21:23;96227.75;;;9.53;100.00
7662;BME280;30314;48.184;11.510;2023-05-02T06:23:49;96221.16;;;9.50;100.00
7662;BME280;30314;48.184;11.510;2023-05-02T06:26:16;96231.13;;;9.58;100.00
7662;BME280;30314;48.184;11.510;2023-05-02T06:28:42;96238.00;;;9.60;100.00
7662;BME280;30314;48.184;11.510;2023-05-02T06:31:09;96235.88;;;9.62;100.00
7662;BME280;30314;48.184;11.510;2023-05-02T06:33:36;96234.03;;;9.62;100.00
7662;BME280;30314;48.184;11.510;2023-05-02T06:36:03;96236.66;;;9.67;100.00
7662;BME280;30314;48.184;11.510;2023-05-02T06:38:29;96233.72;;;9.69;100.00
7662;BME280;30314;48.184;11.510;2023-05-02T06:40:56;96242.13;;;9.81;100.00
7662;BME280;30314;48.184;11.510;2023-05-02T06:43:22;96250.81;;;9.87;100.00
7662;BME280;30314;48.184;11.510;2023-05-02T06:45:52;96246.28;;;9.93;100.00
7662;BME280;30314;48.184;11.510;2023-05-02T06:48:19;96244.94;;;10.00;100.00
7662;BME280;30314;48.184;11.510;2023-05-02T06:50:47;96256.97;;;10.17;100.00
7662;BME280;30314;48.184;11.510;2023-05-02T06:53:14;96255.41;;;10.16;100.00
7662;BME280;30314;48.184;11.510;2023-05-02T06:55:41;96255.09;;;10.23;100.00
7662;BME280;30314;48.184;11.510;2023-05-02T06:58:07;96250.78;;;10.37;100.00
7662;BME280;30314;48.184;11.510;2023-05-02T07:00:34;96249.25;;;10.31;100.00
7662;BME280;30314;48.184;11.510;2023-05-02T07:03:00;96256.38;;;10.36;100.00
7662;BME280;30314;48.184;11.510;2023-05-02T07:05:28;96259.97;;;10.45;100.00
7662;BME280;30314;48.184;11.510;2023-05-02T07:07:54;96262.84;;;10.54;100.00
7662;BME280;30314;48.184;11.510;2023-05-02T07:10:21;96265.75;;;10.52;100.00
7662;BME280;30314;48.184;11.510;2023-05-02T07:12:48;96272.81;;;10.62;100.00
7662;BME280;30314;48.184;11.510;2023-05-02T07:15:14;96269.97;;;10.53;100.00
7662;BME280;30314;48.184;11.510;2023-05-02T07:17:41;96271.28;;;10.56;100.00
7662;BME280;30314;48.184;11.510;2023-05-02T07:20:09;96265.75;;;10.52;100.00
7662;BME280;30314;48.184;11.510;2023-05-02T07:22:36;96266.81;;;10.51;100.00
7662;BME280;30314;48.184;11.510;2023-05-02T07:25:02;96273.94;;;10.51;100.00
7662;BME280;30314;48.184;11.510;2023-05-02T07:27:29;96247.94;;;10.34;100.00
7662;BME280;30314;48.184;11.510;2023-05-02T07:29:56;96260.22;;;10.49;100.00
7662;BME280;30314;48.184;11.510;2023-05-02T07:32:22;96261.28;;;10.48;100.00
7662;BME280;30314;48.184;11.510;2023-05-02T07:34:51;96248.69;;;10.34;100.00
7662;BME280;30314;48.184;11.510;2023-05-02T07:37:22;96268.47;;;10.42;100.00
7662;BME280;30314;48.184;11.510;2023-05-02T07:39:48;96256.38;;;10.31;100.00
7662;BME280;30314;48.184;11.510;2023-05-02T07:42:15;96235.56;;;10.24;100.00
7662;BME280;30314;48.184;11.510;2023-05-02T07:44:42;96264.53;;;10.34;100.00
7662;BME280;30314;48.184;11.510;2023-05-02T07:47:08;96271.59;;;10.49;100.00
7662;BME280;30314;48.184;11.510;2023-05-02T07:49:35;96284.88;;;10.74;100.00
7662;BME280;30314;48.184;11.510;2023-05-02T07:52:03;96270.53;;;10.85;100.00
7662;BME280;30314;48.184;11.510;2023-05-02T07:54:29;96278.63;;;10.99;100.00
7662;BME280;30314;48.184;11.510;2023-05-02T07:56:56;96275.41;;;11.02;100.00
7662;BME280;30314;48.184;11.510;2023-05-02T07:59:27;96289.78;;;11.25;100.00
7662;BME280;30314;48.184;11.510;2023-05-02T08:01:53;96268.44;;;11.46;100.00
7662;BME280;30314;48.184;11.510;2023-05-02T08:04:20;96287.84;;;11.61;100.00
7662;BME280;30314;48.184;11.510;2023-05-02T08:06:47;96282.59;;;11.55;100.00
7662;BME280;30314;48.184;11.510;2023-05-02T08:09:13;96271.06;;;11.46;100.00
7662;BME280;30314;48.184;11.510;2023-05-02T08:11:40;96284.06;;;11.67;100.00
7662;BME280;30314;48.184;11.510;2023-05-02T08:14:06;96292.47;;;11.74;100.00
7662;BME280;30314;48.184;11.510;2023-05-02T08:16:33;96258.13;;;11.45;100.00
7662;BME280;30314;48.184;11.510;2023-05-02T08:19:00;96292.47;;;11.74;100.00
7662;BME280;30314;48.184;11.510;2023-05-02T08:21:26;96291.63;;;11.79;100.00
7662;BME280;30314;48.184;11.510;2023-05-02T08:23:57;96288.69;;;11.80;100.00
7662;BME280;30314;48.184;11.510;2023-05-02T08:26:24;96291.31;;;11.80;100.00
7662;BME280;30314;48.184;11.510;2023-05-02T08:28:51;96301.22;;;11.94;100.00
7662;BME280;30314;48.184;11.510;2023-05-02T08:31:18;96274.25;;;11.92;100.00
7662;BME280;30314;48.184;11.510;2023-05-02T08:33:45;96291.75;;;12.12;100.00
7662;BME280;30314;48.184;11.510;2023-05-02T08:36:15;96299.25;;;12.05;100.00
7662;BME280;30314;48.184;11.510;2023-05-02T08:38:44;96286.88;;;12.00;100.00
7662;BME280;30314;48.184;11.510;2023-05-02T08:41:18;96313.00;;;12.07;100.00
7662;BME280;30314;48.184;11.510;2023-05-02T08:43:45;96298.53;;;11.99;100.00
7662;BME280;30314;48.184;11.510;2023-05-02T08:46:13;96300.94;;;11.95;100.00
7662;BME280;30314;48.184;11.510;2023-05-02T08:48:43;96305.94;;;11.97;100.00
7662;BME280;30314;48.184;11.510;2023-05-02T08:51:12;96301.72;;;11.96;100.00
7662;BME280;30314;48.184;11.510;2023-05-02T08:53:39;96303.59;;;11.95;100.00
7662;BME280;30314;48.184;11.510;2023-05-02T08:56:08;96286.66;;;11.96;100.00
7662;BME280;30314;48.184;11.510;2023-05-02T08:58:38;96300.66;;;11.97;100.00
7662;BME280;30314;48.184;11.510;2023-05-02T09:01:12;96301.19;;;11.99;100.00
7662;BME280;30314;48.184;11.510;2023-05-02T09:03:45;96312.78;;;12.03;100.00
7662;BME280;30314;48.184;11.510;2023-05-02T09:06:15;96308.53;;;12.02;100.00
7662;BME280;30314;48.184;11.510;2023-05-02T09:08:44;96273.28;;;11.82;100.00
7662;BME280;30314;48.184;11.510;2023-05-02T09:11:12;96320.25;;;12.20;100.00
7662;BME280;30314;48.184;11.510;2023-05-02T09:13:40;96326.09;;;12.17;100.00
7662;BME280;30314;48.184;11.510;2023-05-02T09:16:12;96323.25;;;12.33;100.00
7662;BME280;30314;48.184;11.510;2023-05-02T09:18:40;96327.63;;;12.43;100.00
7662;BME280;30314;48.184;11.510;2023-05-02T09:21:10;96337.66;;;12.46;100.00
7662;BME280;30314;48.184;11.510;2023-05-02T09:23:44;96337.78;;;12.35;100.00
7662;BME280;30314;48.184;11.510;2023-05-02T09:28:49;96336.34;;;12.43;100.00
7662;BME280;30314;48.184;11.510;2023-05-02T09:34:12;96345.03;;;12.68;100.00
7662;BME280;30314;48.184;11.510;2023-05-02T09:36:44;96329.63;;;12.51;100.00
7662;BME280;30314;48.184;11.510;2023-05-02T09:39:13;96309.38;;;12.41;100.00
7662;BME280;30314;48.184;11.510;2023-05-02T09:41:45;96334.44;;;12.87;100.00
7662;BME280;30314;48.184;11.510;2023-05-02T09:44:14;96335.47;;;12.72;100.00
7662;BME280;30314;48.184;11.510;2023-05-02T09:46:44;96333.00;;;12.57;100.00
7662;BME280;30314;48.184;11.510;2023-05-02T09:49:11;96345.53;;;12.70;100.00
7662;BME280;30314;48.184;11.510;2023-05-02T09:51:37;96333.94;;;12.66;100.00
7662;BME280;30314;48.184;11.510;2023-05-02T09:54:04;96344.75;;;12.69;100.00
7662;BME280;30314;48.184;11.510;2023-05-02T09:56:31;96345.59;;;12.65;100.00
7662;BME280;30314;48.184;11.510;2023-05-02T09:59:14;96351.56;;;12.76;100.00
7662;BME280;30314;48.184;11.510;2023-05-02T10:01:41;96330.19;;;12.72;100.00
7662;BME280;30314;48.184;11.510;2023-05-02T10:04:11;96323.41;;;12.61;100.00
7662;BME280;30314;48.184;11.510;2023-05-02T10:06:42;96330.88;;;12.59;100.00
7662;BME280;30314;48.184;11.510;2023-05-02T10:09:10;96343.81;;;12.60;100.00
7662;BME280;30314;48.184;11.510;2023-05-02T10:11:43;96339.22;;;12.47;100.00
7662;BME280;30314;48.184;11.510;2023-05-02T10:14:11;96342.00;;;12.55;100.00
7662;BME280;30314;48.184;11.510;2023-05-02T10:16:46;96327.69;;;12.57;100.00
7662;BME280;30314;48.184;11.510;2023-05-02T10:19:18;96306.00;;;12.35;100.00
7662;BME280;30314;48.184;11.510;2023-05-02T10:21:48;96311.16;;;12.46;100.00
7662;BME280;30314;48.184;11.510;2023-05-02T10:24:15;96347.69;;;12.68;100.00
7662;BME280;30314;48.184;11.510;2023-05-02T10:26:42;96338.25;;;12.62;100.00
7662;BME280;30314;48.184;11.510;2023-05-02T10:29:10;96344.53;;;12.66;100.00
7662;BME280;30314;48.184;11.510;2023-05-02T10:31:37;96350.78;;;12.75;100.00
7662;BME280;30314;48.184;11.510;2023-05-02T10:34:10;96338.84;;;12.78;100.00
7662;BME280;30314;48.184;11.510;2023-05-02T10:36:37;96352.66;;;12.75;100.00
7662;BME280;30314;48.184;11.510;2023-05-02T10:39:03;96336.06;;;12.45;100.00
7662;BME280;30314;48.184;11.510;2023-05-02T10:41:32;96352.91;;;12.35;100.00
7662;BME280;30314;48.184;11.510;2023-05-02T10:43:59;96363.00;;;12.33;100.00
7662;BME280;30314;48.184;11.510;2023-05-02T10:46:35;96347.06;;;12.14;100.00
7662;BME280;30314;48.184;11.510;2023-05-02T10:49:06;96354.63;;;12.01;100.00
7662;BME280;30314;48.184;11.510;2023-05-02T10:51:35;96349.03;;;11.78;100.00
7662;BME280;30314;48.184;11.510;2023-05-02T10:54:21;96353.25;;;11.79;100.00
7662;BME280;30314;48.184;11.510;2023-05-02T11:01:59;96349.13;;;11.68;100.00
7662;BME280;30314;48.184;11.510;2023-05-02T11:07:26;96354.00;;;11.55;100.00
7662;BME280;30314;48.184;11.510;2023-05-02T11:18:11;96342.91;;;11.59;100.00
7662;BME280;30314;48.184;11.510;2023-05-02T11:20:43;96340.13;;;11.69;100.00
7662;BME280;30314;48.184;11.510;2023-05-02T11:25:41;96326.91;;;11.69;100.00
7662;BME280;30314;48.184;11.510;2023-05-02T11:31:04;96332.34;;;11.78;100.00
7662;BME280;30314;48.184;11.510;2023-05-02T11:33:31;96343.63;;;11.89;100.00
7662;BME280;30314;48.184;11.510;2023-05-02T11:35:58;96327.28;;;11.81;100.00
7662;BME280;30314;48.184;11.510;2023-05-02T11:38:26;96338.63;;;11.87;100.00
7662;BME280;30314;48.184;11.510;2023-05-02T11:41:00;96331.06;;;12.00;100.00
7662;BME280;30314;48.184;11.510;2023-05-02T11:43:28;96352.63;;;12.12;100.00
7662;BME280;30314;48.184;11.510;2023-05-02T11:45:58;96357.59;;;12.19;100.00
7662;BME280;30314;48.184;11.510;2023-05-02T11:48:26;96341.97;;;12.17;100.00
7662;BME280;30314;48.184;11.510;2023-05-02T11:50:55;96347.56;;;12.16;100.00
7662;BME280;30314;48.184;11.510;2023-05-02T11:53:26;96356.66;;;12.29;100.00
7662;BME280;30314;48.184;11.510;2023-05-02T11:55:57;96360.13;;;12.29;100.00
7662;BME280;30314;48.184;11.510;2023-05-02T11:58:26;96310.28;;;12.12;100.00
7662;BME280;30314;48.184;11.510;2023-05-02T12:00:55;96297.13;;;12.07;100.00
7662;BME280;30314;48.184;11.510;2023-05-02T12:03:29;96351.53;;;12.57;100.00
7662;BME280;30314;48.184;11.510;2023-05-02T12:06:07;96335.63;;;12.37;100.00
7662;BME280;30314;48.184;11.510;2023-05-02T12:08:35;96358.06;;;12.45;100.00
7662;BME280;30314;48.184;11.510;2023-05-02T12:11:02;96351.53;;;12.37;100.00
7662;BME280;30314;48.184;11.510;2023-05-02T12:13:29;96359.19;;;12.39;100.00
7662;BME280;30314;48.184;11.510;2023-05-02T12:15:56;96300.59;;;12.02;100.00
7662;BME280;30314;48.184;11.510;2023-05-02T12:18:23;96357.38;;;12.34;100.00
7662;BME280;30314;48.184;11.510;2023-05-02T12:20:51;96358.53;;;12.28;100.00
7662;BME280;30314;48.184;11.510;2023-05-02T12:23:19;96357.63;;;12.38;100.00
7662;BME280;30314;48.184;11.510;2023-05-02T12:25:46;96358.47;;;12.33;100.00
7662;BME280;30314;48.184;11.510;2023-05-02T12:28:17;96349.53;;;12.29;100.00
7662;BME280;30314;48.184;11.510;2023-05-02T12:30:47;96344.66;;;12.36;100.00
7662;BME280;30314;48.184;11.510;2023-05-02T12:33:13;96309.66;;;12.20;100.00
7662;BME280;30314;48.184;11.510;2023-05-02T12:35:42;96308.00;;;12.24;100.00
7662;BME280;30314;48.184;11.510;2023-05-02T12:40:35;96347.31;;;12.55;100.00
7662;BME280;30314;48.184;11.510;2023-05-02T12:43:03;96321.91;;;12.54;100.00
7662;BME280;30314;48.184;11.510;2023-05-02T12:45:33;96339.22;;;12.66;100.00
7662;BME280;30314;48.184;11.510;2023-05-02T12:48:00;96336.53;;;12.71;100.00
7662;BME280;30314;48.184;11.510;2023-05-02T12:50:35;96349.22;;;12.93;100.00
7662;BME280;30314;48.184;11.510;2023-05-02T12:53:02;96318.53;;;12.68;100.00
7662;BME280;30314;48.184;11.510;2023-05-02T12:55:29;96308.78;;;12.63;100.00
7662;BME280;30314;48.184;11.510;2023-05-02T12:58:05;96354.16;;;13.00;100.00
7662;BME280;30314;48.184;11.510;2023-05-02T13:00:34;96329.22;;;12.82;100.00
7662;BME280;30314;48.184;11.510;2023-05-02T13:03:02;96353.66;;;12.98;100.00
7662;BME280;30314;48.184;11.510;2023-05-02T13:05:29;96337.97;;;12.82;100.00
7662;BME280;30314;48.184;11.510;2023-05-02T13:07:56;96330.00;;;12.82;100.00
7662;BME280;30314;48.184;11.510;2023-05-02T13:10:24;96350.94;;;12.84;100.00
7662;BME280;30314;48.184;11.510;2023-05-02T13:12:51;96340.59;;;12.82;100.00
7662;BME280;30314;48.184;11.510;2023-05-02T13:15:18;96314.59;;;12.65;100.00
7662;BME280;30314;48.184;11.510;2023-05-02T13:17:45;96318.03;;;12.66;100.00
7662;BME280;30314;48.184;11.510;2023-05-02T13:20:13;96357.44;;;12.92;100.00
7662;BME280;30314;48.184;11.510;2023-05-02T13:22:40;96355.00;;;12.95;100.00
7662;BME280;30314;48.184;11.510;2023-05-02T13:25:07;96365.97;;;13.08;100.00
7662;BME280;30314;48.184;11.510;2023-05-02T13:27:34;96363.72;;;12.96;100.00
7662;BME280;30314;48.184;11.510;2023-05-02T13:30:01;96358.53;;;12.91;100.00
7662;BME280;30314;48.184;11.510;2023-05-02T13:32:31;96373.00;;;12.79;100.00
7662;BME280;30314;48.184;11.510;2023-05-02T13:34:58;96371.41;;;12.78;100.00
7662;BME280;30314;48.184;11.510;2023-05-02T13:37:25;96368.00;;;12.78;100.00
7662;BME280;30314;48.184;11.510;2023-05-02T13:39:52;96366.91;;;12.79;100.00
7662;BME280;30314;48.184;11.510;2023-05-02T13:42:18;96368.50;;;12.80;100.00
7662;BME280;30314;48.184;11.510;2023-05-02T13:44:45;96371.50;;;12.92;100.00